Time;durP1;ratioP1;P1;durP2;ratioP2;P2;SDS_P1;SDS_P2;PMS_P1;PMS_P2;Temp;Humidity;BMP_temperature;BMP_pressure;BME280_temperature;BME280_humidity;BME280_pressure;Samples;Min_cycle;Max_cycle;Signal;HPM_P1;HPM_P2
2023/04/10 00:00:59;;;;;;;9.07;7.20;;;6.90;99.90;;;;;;5068560;28;20219;-70
2023/04/10 00:03:25;;;;;;;9.03;7.20;;;6.90;99.90;;;;;;5070207;28;20223;-70
2023/04/10 00:05:53;;;;;;;8.80;6.53;;;6.80;99.90;;;;;;5070439;28;20425;-71
2023/04/10 00:08:22;;;;;;;8.77;7.10;;;6.80;99.90;;;;;;5070706;28;20432;-71
2023/04/10 00:10:48;;;;;;;8.93;6.97;;;6.80;99.90;;;;;;5070523;28;20432;-71
2023/04/10 00:13:14;;;;;;;10.87;7.20;;;6.80;99.90;;;;;;5069190;28;20450;-70
2023/04/10 00:15:40;;;;;;;8.63;6.70;;;6.70;99.90;;;;;;5070406;28;20203;-71
2023/04/10 00:18:06;;;;;;;7.73;6.20;;;6.70;99.90;;;;;;5070570;28;20796;-70
2023/04/10 00:20:31;;;;;;;8.77;6.60;;;6.70;99.90;;;;;;5069268;28;20225;-71
2023/04/10 00:22:57;;;;;;;11.23;7.30;;;6.80;99.90;;;;;;5069529;28;20264;-70
2023/04/10 00:25:23;;;;;;;7.87;6.57;;;6.70;99.90;;;;;;5069598;28;20270;-70
2023/04/10 00:27:48;;;;;;;10.30;7.80;;;6.70;99.90;;;;;;5069490;28;20210;-70
2023/04/10 00:30:14;;;;;;;9.73;6.70;;;6.70;99.90;;;;;;5069409;28;20191;-70
2023/04/10 00:32:40;;;;;;;13.43;7.03;;;6.60;99.90;;;;;;5068082;28;20208;-70
2023/04/10 00:35:07;;;;;;;10.50;7.63;;;6.60;99.90;;;;;;5067940;28;20435;-70
2023/04/10 00:37:33;;;;;;;8.30;6.73;;;6.60;99.90;;;;;;5069213;28;20198;-70
2023/04/10 00:39:58;;;;;;;12.30;6.27;;;6.60;99.90;;;;;;5067478;28;20473;-70
2023/04/10 00:42:24;;;;;;;8.57;5.93;;;6.40;99.90;;;;;;5069189;28;20722;-70
2023/04/10 00:44:50;;;;;;;7.20;5.83;;;6.60;99.90;;;;;;5069086;28;20185;-70
2023/04/10 00:47:15;;;;;;;7.97;6.60;;;6.60;99.90;;;;;;5068990;28;20183;-70
2023/04/10 00:49:42;;;;;;;7.20;6.47;;;6.50;99.90;;;;;;5069002;28;20213;-70
2023/04/10 00:52:08;;;;;;;7.60;6.50;;;6.40;99.90;;;;;;5068780;28;20528;-70
2023/04/10 00:54:35;;;;;;;10.43;6.43;;;6.40;99.90;;;;;;5067380;28;21026;-70
2023/04/10 00:57:01;;;;;;;7.40;6.60;;;6.40;99.90;;;;;;5068831;28;20444;-70
2023/04/10 00:59:27;;;;;;;6.17;5.57;;;6.30;99.90;;;;;;5068877;28;20410;-70
2023/04/10 01:01:53;;;;;;;7.23;6.07;;;6.60;99.30;;;;;;5068577;28;20937;-70
2023/04/10 01:04:19;;;;;;;8.80;7.13;;;6.70;99.90;;;;;;5067440;28;20606;-70
2023/04/10 01:06:59;;;;;;;9.90;6.80;;;6.60;99.90;;;;;;5068675;28;20185;-70
2023/04/10 01:09:34;;;;;;;7.60;6.10;;;6.50;99.90;;;;;;5068935;28;20417;-70
2023/04/10 01:12:22;;;;;;;8.53;6.90;;;6.40;99.90;;;;;;5067231;28;20581;-68
2023/04/10 01:14:56;;;;;;;7.07;5.70;;;6.40;99.90;;;;;;5068644;28;20776;-68
2023/04/10 01:17:32;;;;;;;6.97;6.10;;;6.40;99.90;;;;;;5068669;28;20561;-70
2023/04/10 01:20:20;;;;;;;8.20;5.87;;;6.40;99.90;;;;;;5068559;28;20424;-70
2023/04/10 01:22:57;;;;;;;8.10;5.53;;;6.40;99.90;;;;;;5068519;28;20441;-70
2023/04/10 01:25:34;;;;;;;7.57;5.60;;;6.40;99.90;;;;;;5068553;28;20410;-70
2023/04/10 01:28:18;;;;;;;7.50;6.07;;;6.40;99.90;;;;;;5068548;28;20409;-70
2023/04/10 01:30:46;;;;;;;7.40;6.30;;;6.30;99.90;;;;;;5068275;28;21256;-70
2023/04/10 01:33:16;;;;;;;9.43;6.47;;;6.20;99.90;;;;;;5068295;28;20772;-70
2023/04/10 01:35:46;;;;;;;11.03;6.60;;;6.00;99.90;;;;;;5067350;28;20798;-70
2023/04/10 01:38:16;;;;;;;8.73;6.50;;;6.00;99.90;;;;;;5068391;28;20420;-69
2023/04/10 01:40:48;;;;;;;8.50;6.67;;;5.90;99.90;;;;;;5068064;28;20485;-69
2023/04/10 01:43:16;;;;;;;6.10;5.50;;;5.80;99.90;;;;;;5068244;28;20552;-70
2023/04/10 01:45:45;;;;;;;8.77;6.60;;;5.80;99.90;;;;;;5068228;28;20421;-69
2023/04/10 01:48:11;;;;;;;8.90;6.83;;;5.80;99.90;;;;;;5068113;28;20419;-69
2023/04/10 01:50:37;;;;;;;7.17;5.90;;;5.70;99.90;;;;;;5068304;28;20421;-69
2023/04/10 01:53:05;;;;;;;7.83;6.20;;;5.80;99.90;;;;;;5068060;28;20211;-70
2023/04/10 01:55:32;;;;;;;8.10;6.27;;;5.70;99.90;;;;;;5068277;28;20454;-70
2023/04/10 01:58:00;;;;;;;7.70;5.83;;;5.60;99.90;;;;;;5066706;28;20917;-70
2023/04/10 02:00:26;;;;;;;8.43;6.80;;;5.50;99.90;;;;;;5066308;28;20508;-70
2023/04/10 02:02:52;;;;;;;8.37;5.87;;;5.40;99.90;;;;;;5068023;28;20437;-70
2023/04/10 02:05:18;;;;;;;7.90;5.80;;;5.30;99.90;;;;;;5068223;28;20525;-70
2023/04/10 02:08:02;;;;;;;7.67;5.90;;;5.30;99.90;;;;;;5068231;28;20430;-70
2023/04/10 02:10:30;;;;;;;7.27;5.40;;;5.40;99.90;;;;;;5068244;28;20421;-70
2023/04/10 02:13:04;;;;;;;7.90;6.40;;;5.40;99.90;;;;;;5066345;28;20478;-71
2023/04/10 02:15:31;;;;;;;7.87;5.83;;;5.30;99.90;;;;;;5068021;28;20773;-71
2023/04/10 02:17:59;;;;;;;8.73;6.03;;;5.30;99.90;;;;;;5067999;28;20432;-70
2023/04/10 02:20:25;;;;;;;7.07;5.85;;;5.20;99.90;;;;;;5068136;28;20461;-70
2023/04/10 02:22:52;;;;;;;7.97;5.87;;;5.20;99.90;;;;;;5066351;28;20199;-70
2023/04/10 02:25:18;;;;;;;9.10;6.80;;;5.10;99.90;;;;;;5067630;28;20583;-70
2023/04/10 02:27:43;;;;;;;6.70;5.60;;;5.00;99.90;;;;;;5067745;28;20962;-70
2023/04/10 02:30:09;;;;;;;8.27;6.53;;;5.00;99.90;;;;;;5067809;28;20190;-70
2023/04/10 02:32:35;;;;;;;7.13;5.67;;;5.10;99.90;;;;;;5066364;28;20206;-70
2023/04/10 02:35:01;;;;;;;6.40;5.70;;;5.10;99.90;;;;;;5066212;28;20437;-71
2023/04/10 02:37:27;;;;;;;7.68;5.85;;;5.00;99.90;;;;;;5067825;28;20449;-71
2023/04/10 02:39:54;;;;;;;7.30;5.80;;;5.00;99.90;;;;;;5067540;28;20238;-70
2023/04/10 02:42:19;;;;;;;8.10;6.00;;;5.00;99.90;;;;;;5066331;28;20453;-70
2023/04/10 02:44:46;;;;;;;6.60;5.30;;;5.00;99.90;;;;;;5071068;28;20805;-70
2023/04/10 02:47:12;;;;;;;7.20;5.77;;;5.00;99.90;;;;;;5086875;28;20595;-70
2023/04/10 02:49:37;;;;;;;9.57;5.67;;;5.10;99.90;;;;;;5071418;28;20428;-71
2023/04/10 02:52:03;;;;;;;7.80;5.80;;;5.10;99.90;;;;;;5071321;28;20199;-70
2023/04/10 02:54:29;;;;;;;5.83;5.03;;;5.20;99.90;;;;;;5071794;28;20186;-70
2023/04/10 02:56:56;;;;;;;6.97;5.07;;;5.30;99.90;;;;;;5071149;28;20197;-70
2023/04/10 02:59:22;;;;;;;10.77;7.07;;;5.50;99.90;;;;;;5069543;28;20439;-70
2023/04/10 03:01:48;;;;;;;6.03;5.10;;;5.40;99.90;;;;;;5070935;28;20472;-70
2023/04/10 03:04:13;;;;;;;9.20;6.53;;;5.70;99.90;;;;;;5071101;28;20189;-70
2023/04/10 03:06:39;;;;;;;16.10;7.93;;;5.80;99.90;;;;;;5069696;28;20413;-70
2023/04/10 03:09:05;;;;;;;9.90;6.80;;;5.70;99.90;;;;;;5071028;28;20240;-70
2023/04/10 03:11:30;;;;;;;7.77;5.50;;;5.70;99.90;;;;;;5070790;28;20183;-71
2023/04/10 03:13:59;;;;;;;7.50;6.00;;;5.60;99.90;;;;;;5070917;28;20451;-70
2023/04/10 03:16:25;;;;;;;6.97;5.77;;;5.60;99.90;;;;;;5069791;28;20187;-70
2023/04/10 03:18:52;;;;;;;6.83;5.50;;;5.70;99.90;;;;;;5071115;28;20843;-70
2023/04/10 03:21:17;;;;;;;7.60;5.90;;;5.70;99.90;;;;;;5070797;28;20448;-70
2023/04/10 03:23:43;;;;;;;18.50;5.63;;;5.60;99.90;;;;;;5069391;28;20484;-69
2023/04/10 03:26:09;;;;;;;7.50;5.37;;;5.50;99.90;;;;;;5070635;28;20269;-70
2023/04/10 03:28:35;;;;;;;7.23;5.60;;;5.40;99.90;;;;;;5070720;28;20202;-70
2023/04/10 03:31:02;;;;;;;6.07;5.20;;;5.40;99.90;;;;;;5069071;28;20183;-69
2023/04/10 03:33:27;;;;;;;9.17;6.23;;;5.30;99.90;;;;;;5069387;28;20768;-70
2023/04/10 03:35:53;;;;;;;7.57;5.60;;;5.30;99.90;;;;;;5069572;28;20859;-70
2023/04/10 03:38:18;;;;;;;6.57;5.13;;;5.20;99.90;;;;;;5069815;28;20194;-70
2023/04/10 03:40:44;;;;;;;7.47;5.40;;;5.10;99.90;;;;;;5070849;28;20257;-71
2023/04/10 03:43:10;;;;;;;6.50;5.27;;;5.10;99.90;;;;;;5070932;28;20195;-70
2023/04/10 03:45:35;;;;;;;7.50;5.37;;;5.10;99.90;;;;;;5070916;28;20183;-70
2023/04/10 03:48:01;;;;;;;8.53;6.07;;;5.00;99.90;;;;;;5069328;28;20182;-70
2023/04/10 03:50:26;;;;;;;7.07;6.17;;;5.00;99.90;;;;;;5070478;28;20316;-70
2023/04/10 03:52:52;;;;;;;7.30;5.90;;;4.90;99.90;;;;;;5068868;28;20288;-70
2023/04/10 03:55:18;;;;;;;7.07;5.60;;;4.70;99.90;;;;;;5069906;28;20210;-70
2023/04/10 03:57:47;;;;;;;7.13;5.90;;;4.70;99.90;;;;;;5070111;28;20194;-70
2023/04/10 04:00:16;;;;;;;8.40;6.03;;;4.50;99.90;;;;;;5070083;28;20674;-70
2023/04/10 04:02:42;;;;;;;7.90;6.60;;;4.40;99.90;;;;;;5069828;28;20429;-70
2023/04/10 04:05:08;;;;;;;6.47;4.93;;;4.40;99.90;;;;;;5070278;28;20462;-70
2023/04/10 04:07:34;;;;;;;7.30;5.73;;;4.40;99.90;;;;;;5069931;28;20187;-70
2023/04/10 04:10:00;;;;;;;8.40;6.47;;;4.40;99.90;;;;;;5069980;28;20420;-71
2023/04/10 04:12:26;;;;;;;9.37;6.13;;;4.30;99.90;;;;;;5070203;28;20464;-70
2023/04/10 04:14:52;;;;;;;6.43;5.50;;;4.30;99.90;;;;;;5070029;28;20907;-69
2023/04/10 04:17:17;;;;;;;8.10;5.63;;;4.20;99.90;;;;;;5069627;28;20240;-69
2023/04/10 04:19:43;;;;;;;8.50;5.60;;;4.20;99.90;;;;;;5068545;28;20178;-70
2023/04/10 04:22:09;;;;;;;8.77;6.40;;;4.20;99.90;;;;;;5069316;28;20247;-70
2023/04/10 04:24:35;;;;;;;9.75;5.88;;;4.10;99.90;;;;;;5069386;28;20602;-70
2023/04/10 04:27:01;;;;;;;7.53;5.80;;;4.10;99.90;;;;;;5069653;28;20194;-70
2023/04/10 04:29:27;;;;;;;7.90;6.17;;;4.10;99.90;;;;;;5069832;28;20224;-70
2023/04/10 04:31:52;;;;;;;10.60;7.30;;;4.10;99.90;;;;;;5069419;28;20464;-70
2023/04/10 04:34:18;;;;;;;8.00;6.23;;;4.30;99.90;;;;;;5051301;28;20624;-70
2023/04/10 04:36:44;;;;;;;9.20;6.70;;;4.40;99.90;;;;;;5068019;28;20728;-70
2023/04/10 04:39:09;;;;;;;7.70;5.83;;;4.50;99.90;;;;;;5067727;28;20276;-70
2023/04/10 04:41:35;;;;;;;8.17;6.57;;;4.50;99.90;;;;;;5067728;28;20214;-69
2023/04/10 04:44:01;;;;;;;12.93;7.53;;;4.60;99.90;;;;;;5069201;28;20233;-70
2023/04/10 04:46:27;;;;;;;12.00;9.47;;;4.60;99.90;;;;;;5069359;28;20185;-70
2023/04/10 04:48:52;;;;;;;10.43;7.80;;;4.60;99.90;;;;;;5069063;28;20428;-69
2023/04/10 04:51:18;;;;;;;8.60;7.00;;;4.50;99.90;;;;;;5069168;28;20428;-70
2023/04/10 04:53:44;;;;;;;10.27;8.13;;;4.50;99.90;;;;;;5068982;28;20207;-70
2023/04/10 04:56:09;;;;;;;10.70;8.00;;;4.40;99.90;;;;;;5067791;28;20228;-70
2023/04/10 04:58:35;;;;;;;8.80;7.23;;;4.50;99.90;;;;;;5069037;28;20186;-70
2023/04/10 05:01:00;;;;;;;8.97;6.57;;;4.60;99.90;;;;;;5068807;28;20291;-70
2023/04/10 05:03:29;;;;;;;9.07;7.07;;;4.60;99.90;;;;;;5069225;28;20303;-70
2023/04/10 05:05:55;;;;;;;9.90;6.73;;;4.70;99.90;;;;;;5069296;28;20812;-69
2023/04/10 05:08:21;;;;;;;11.27;7.10;;;4.80;99.90;;;;;;5069639;28;20411;-70
2023/04/10 05:10:47;;;;;;;11.70;9.40;;;4.80;99.90;;;;;;5084514;28;20437;-70
2023/04/10 05:13:14;;;;;;;11.00;8.63;;;4.90;99.90;;;;;;5068814;28;20206;-70
2023/04/10 05:15:40;;;;;;;9.70;7.55;;;5.10;99.90;;;;;;5068777;28;20183;-70
2023/04/10 05:18:05;;;;;;;8.13;6.37;;;5.20;99.90;;;;;;5069289;28;20224;-69
2023/04/10 05:20:34;;;;;;;8.80;6.93;;;5.20;99.90;;;;;;5069059;28;20577;-69
2023/04/10 05:23:00;;;;;;;9.43;6.57;;;5.30;99.90;;;;;;5069849;28;20194;-69
2023/04/10 05:25:25;;;;;;;8.77;6.77;;;5.30;99.90;;;;;;5069412;28;20492;-69
2023/04/10 05:27:51;;;;;;;11.10;8.40;;;5.40;99.90;;;;;;5069226;28;20420;-69
2023/04/10 05:30:17;;;;;;;23.87;10.93;;;5.50;99.90;;;;;;5069088;28;20209;-70
2023/04/10 05:32:42;;;;;;;23.87;15.60;;;5.50;99.90;;;;;;5068741;28;20215;-69
2023/04/10 05:35:08;;;;;;;20.20;17.40;;;5.70;99.90;;;;;;5068526;28;20685;-69
2023/04/10 05:37:34;;;;;;;12.87;10.27;;;5.90;99.90;;;;;;5067185;28;20194;-69
2023/04/10 05:39:59;;;;;;;18.80;16.33;;;6.00;99.90;;;;;;5066769;28;20630;-69
2023/04/10 05:42:25;;;;;;;11.20;9.47;;;6.20;99.90;;;;;;5068317;28;20793;-70
2023/04/10 05:44:51;;;;;;;6.47;4.90;;;6.30;99.90;;;;;;5068632;28;20179;-69
2023/04/10 05:47:17;;;;;;;7.07;5.50;;;6.50;99.10;;;;;;5067430;28;20182;-70
2023/04/10 05:49:42;;;;;;;5.70;5.10;;;6.80;96.70;;;;;;5067584;28;20936;-70
2023/04/10 05:52:08;;;;;;;5.43;4.50;;;7.00;96.50;;;;;;5068981;28;20207;-70
2023/04/10 05:54:34;;;;;;;13.90;9.80;;;7.20;95.90;;;;;;5069179;28;20196;-70
2023/04/10 05:57:00;;;;;;;7.20;6.17;;;7.40;96.30;;;;;;5068941;28;20281;-70
2023/04/10 05:59:26;;;;;;;8.60;7.00;;;7.60;94.80;;;;;;5084145;28;20194;-69
2023/04/10 06:01:52;;;;;;;17.27;15.37;;;7.80;94.30;;;;;;5073399;28;20465;-72
2023/04/10 06:04:17;;;;;;;14.00;11.17;;;8.00;93.40;;;;;;5085537;28;20425;-72
2023/04/10 06:06:43;;;;;;;27.80;21.27;;;8.00;95.20;;;;;;5084327;28;20217;-71
2023/04/10 06:09:09;;;;;;;11.97;9.80;;;8.10;94.60;;;;;;5073492;28;20190;-70
2023/04/10 06:11:34;;;;;;;11.90;8.50;;;8.30;93.70;;;;;;5068405;28;20249;-70
2023/04/10 06:14:00;;;;;;;8.50;6.67;;;8.50;93.10;;;;;;5068261;28;20188;-70
2023/04/10 06:16:26;;;;;;;9.40;7.70;;;8.60;91.80;;;;;;5083540;28;20191;-70
2023/04/10 06:18:52;;;;;;;17.70;14.20;;;8.70;88.40;;;;;;5070535;28;20417;-69
2023/04/10 06:21:18;;;;;;;6.00;5.27;;;8.90;89.60;;;;;;5072219;28;20203;-71
2023/04/10 06:23:44;;;;;;;6.07;5.00;;;9.10;84.80;;;;;;5070616;28;20441;-68
2023/04/10 06:26:09;;;;;;;5.03;4.00;;;9.30;81.70;;;;;;5070558;28;20183;-70
2023/04/10 06:28:36;;;;;;;5.07;4.30;;;9.50;82.80;;;;;;5071804;28;20194;-70
2023/04/10 06:31:04;;;;;;;4.70;4.30;;;9.70;79.70;;;;;;5071686;28;20606;-71
2023/04/10 06:33:30;;;;;;;4.40;3.60;;;9.80;79.60;;;;;;5071621;28;20452;-70
2023/04/10 06:35:56;;;;;;;4.17;3.63;;;10.10;77.50;;;;;;5071754;28;20803;-70
2023/04/10 06:38:21;;;;;;;4.90;4.40;;;10.20;77.10;;;;;;5071685;28;20191;-70
2023/04/10 06:40:47;;;;;;;4.03;3.53;;;10.20;74.80;;;;;;5069771;28;20311;-70
2023/04/10 06:43:13;;;;;;;4.90;4.27;;;10.30;76.50;;;;;;5071512;28;20227;-70
2023/04/10 06:45:38;;;;;;;3.77;3.37;;;10.40;74.20;;;;;;5071521;28;20199;-70
2023/04/10 06:48:05;;;;;;;4.00;3.60;;;10.40;72.70;;;;;;5070228;28;20307;-70
2023/04/10 06:50:31;;;;;;;4.37;3.40;;;10.50;71.30;;;;;;5071470;28;20614;-70
2023/04/10 06:52:58;;;;;;;3.60;3.30;;;10.30;70.80;;;;;;5069780;28;20521;-70
2023/04/10 06:55:25;;;;;;;6.33;4.10;;;10.40;71.40;;;;;;5071258;28;20175;-70
2023/04/10 06:57:50;;;;;;;3.77;3.47;;;10.60;72.70;;;;;;5069721;28;20429;-70
2023/04/10 07:00:17;;;;;;;4.57;4.17;;;10.80;70.70;;;;;;5069751;28;20493;-69
2023/04/10 07:02:43;;;;;;;4.60;3.60;;;11.00;71.30;;;;;;5071184;28;20203;-70
2023/04/10 07:05:09;;;;;;;4.10;3.70;;;11.10;70.70;;;;;;5069899;28;20422;-70
2023/04/10 07:07:34;;;;;;;3.70;3.40;;;11.10;71.00;;;;;;5069803;28;20195;-70
2023/04/10 07:10:00;;;;;;;3.37;3.07;;;10.70;69.50;;;;;;5070949;28;20415;-70
2023/04/10 07:12:26;;;;;;;5.50;4.77;;;10.80;68.90;;;;;;5070997;28;20201;-70
2023/04/10 07:14:51;;;;;;;4.93;3.70;;;10.80;67.90;;;;;;5071051;28;20181;-70
2023/04/10 07:17:17;;;;;;;4.37;3.80;;;10.70;68.60;;;;;;5069754;28;20177;-70
2023/04/10 07:19:43;;;;;;;4.33;3.67;;;10.90;69.20;;;;;;5052848;28;20180;-70
2023/04/10 07:22:08;;;;;;;4.37;3.53;;;11.20;69.30;;;;;;5070621;28;20216;-70
2023/04/10 07:24:34;;;;;;;4.37;3.70;;;11.60;71.50;;;;;;5070780;28;20184;-70
2023/04/10 07:27:00;;;;;;;4.43;4.03;;;12.10;70.90;;;;;;5070769;28;20619;-70
2023/04/10 07:29:26;;;;;;;4.13;3.73;;;12.30;68.50;;;;;;5070151;28;20181;-71
2023/04/10 07:31:51;;;;;;;4.73;4.20;;;12.40;68.20;;;;;;5070622;28;20435;-71
2023/04/10 07:34:17;;;;;;;4.40;3.90;;;12.00;64.30;;;;;;5069215;28;20193;-71
2023/04/10 07:36:43;;;;;;;4.93;4.03;;;12.10;64.80;;;;;;5069357;28;20188;-70
2023/04/10 07:39:08;;;;;;;3.57;3.27;;;12.30;64.40;;;;;;5070439;28;20448;-70
2023/04/10 07:41:34;;;;;;;4.10;3.50;;;12.30;64.10;;;;;;5052298;28;20319;-70
2023/04/10 07:44:00;;;;;;;4.07;3.67;;;12.10;63.90;;;;;;5069213;28;20196;-70
2023/04/10 07:46:26;;;;;;;3.53;3.23;;;12.20;66.20;;;;;;5070426;28;20428;-70
2023/04/10 07:48:53;;;;;;;4.53;3.43;;;12.50;65.40;;;;;;5070519;28;20173;-70
2023/04/10 07:51:19;;;;;;;4.10;3.70;;;12.70;64.70;;;;;;5069138;28;20192;-70
2023/04/10 07:53:45;;;;;;;4.27;3.87;;;13.00;65.30;;;;;;5067911;28;20456;-70
2023/04/10 07:56:16;;;;;;;3.50;3.20;;;13.10;64.00;;;;;;5068873;28;20442;-70
2023/04/10 07:58:41;;;;;;;3.33;3.03;;;13.40;62.50;;;;;;5069233;28;20217;-69
2023/04/10 08:01:07;;;;;;;3.80;3.23;;;13.30;61.00;;;;;;5068273;28;20495;-69
2023/04/10 08:03:41;;;;;;;3.37;3.07;;;13.40;63.30;;;;;;5067918;28;20205;-70
2023/04/10 08:06:08;;;;;;;3.10;2.90;;;13.20;61.70;;;;;;5069519;28;20204;-70
2023/04/10 08:08:37;;;;;;;3.07;2.70;;;13.00;60.10;;;;;;5069315;28;20436;-69
2023/04/10 08:11:20;;;;;;;3.30;2.60;;;13.20;60.90;;;;;;5069407;28;20447;-68
2023/04/10 08:13:46;;;;;;;3.83;3.10;;;13.10;59.40;;;;;;5069421;28;20439;-70
2023/04/10 08:16:11;;;;;;;2.80;2.60;;;13.30;59.00;;;;;;5067086;28;20430;-70
2023/04/10 08:18:37;;;;;;;3.17;2.87;;;13.40;58.00;;;;;;5066743;28;20549;-70
2023/04/10 08:21:02;;;;;;;2.63;2.43;;;13.20;58.00;;;;;;5068361;28;20236;-70
2023/04/10 08:23:28;;;;;;;3.43;2.97;;;13.30;57.50;;;;;;5066418;28;20205;-69
2023/04/10 08:25:53;;;;;;;3.27;2.50;;;13.40;57.70;;;;;;5068195;28;20744;-70
2023/04/10 08:28:20;;;;;;;2.60;2.20;;;13.50;57.40;;;;;;5068329;28;20188;-69
2023/04/10 08:30:45;;;;;;;2.80;2.60;;;13.60;56.80;;;;;;5066540;28;20213;-70
2023/04/10 08:33:11;;;;;;;3.30;2.83;;;13.90;56.20;;;;;;5068020;28;20569;-70
2023/04/10 08:35:36;;;;;;;3.23;2.93;;;14.20;56.40;;;;;;5066587;28;20189;-70
2023/04/10 08:38:02;;;;;;;2.90;2.70;;;14.50;56.30;;;;;;5066372;28;20189;-69
2023/04/10 08:40:28;;;;;;;3.47;2.80;;;14.70;56.30;;;;;;5065415;28;20738;-70
2023/04/10 08:42:53;;;;;;;3.67;3.33;;;14.60;54.50;;;;;;5067691;28;20283;-70
2023/04/10 08:45:20;;;;;;;3.20;2.90;;;14.70;55.20;;;;;;5067793;28;20743;-69
2023/04/10 08:47:49;;;;;;;2.63;2.43;;;15.00;55.60;;;;;;5067803;28;20595;-70
2023/04/10 08:50:17;;;;;;;3.20;2.90;;;15.20;53.10;;;;;;5067494;28;20936;-70
2023/04/10 08:52:44;;;;;;;3.53;2.30;;;15.00;51.70;;;;;;5067721;28;20440;-69
2023/04/10 08:55:12;;;;;;;2.57;2.37;;;14.40;49.40;;;;;;5067540;28;20425;-69
2023/04/10 08:57:39;;;;;;;2.40;2.20;;;14.40;50.60;;;;;;5049449;28;20851;-69
2023/04/10 09:00:06;;;;;;;2.70;2.50;;;14.40;50.40;;;;;;5067226;28;20426;-69
2023/04/10 09:02:31;;;;;;;2.77;2.57;;;14.60;50.80;;;;;;5067337;28;20461;-70
2023/04/10 09:04:59;;;;;;;3.07;2.77;;;14.80;49.90;;;;;;5067524;28;21005;-70
2023/04/10 09:07:26;;;;;;;4.03;2.50;;;15.10;50.90;;;;;;5065825;28;20670;-70
2023/04/10 09:09:51;;;;;;;2.60;2.40;;;15.30;50.20;;;;;;5065635;28;20425;-70
2023/04/10 09:12:17;;;;;;;2.80;2.50;;;15.20;49.20;;;;;;5065730;28;20460;-69
2023/04/10 09:14:43;;;;;;;2.40;2.20;;;15.30;49.50;;;;;;5065859;28;20191;-70
2023/04/10 09:17:21;;;;;;;2.67;2.47;;;15.80;49.60;;;;;;5067198;28;20187;-70
2023/04/10 09:19:51;;;;;;;2.50;2.30;;;16.30;48.80;;;;;;5067720;28;20201;-70
2023/04/10 09:22:27;;;;;;;2.33;2.13;;;16.70;48.50;;;;;;5067288;28;20499;-69
2023/04/10 09:24:53;;;;;;;2.07;1.87;;;17.10;45.40;;;;;;5067186;28;20911;-69
2023/04/10 09:27:36;;;;;;;2.20;2.07;;;17.60;46.20;;;;;;5065709;28;20515;-70
2023/04/10 09:30:02;;;;;;;1.60;1.50;;;17.90;43.60;;;;;;5067108;28;20190;-70
2023/04/10 09:32:45;;;;;;;2.27;2.07;;;17.40;41.70;;;;;;5066897;28;20785;-68
2023/04/10 09:35:12;;;;;;;2.07;1.67;;;17.80;42.50;;;;;;5067292;28;20421;-70
2023/04/10 09:37:42;;;;;;;1.87;1.77;;;17.40;42.00;;;;;;5067125;28;20422;-69
2023/04/10 09:40:25;;;;;;;2.27;2.10;;;17.70;41.90;;;;;;5066824;28;20452;-69
2023/04/10 09:42:52;;;;;;;3.13;2.27;;;18.10;40.70;;;;;;5065601;28;20459;-69
2023/04/10 09:45:19;;;;;;;3.80;1.90;;;18.30;41.10;;;;;;5067260;28;20459;-69
2023/04/10 09:48:00;;;;;;;1.93;1.73;;;18.80;41.60;;;;;;5065833;28;20433;-70
2023/04/10 09:50:36;;;;;;;2.20;2.00;;;18.70;38.70;;;;;;5067548;28;20422;-70
2023/04/10 09:53:01;;;;;;;2.27;2.00;;;19.00;39.00;;;;;;5067273;28;20508;-69
2023/04/10 09:55:27;;;;;;;1.97;1.80;;;18.90;36.30;;;;;;5066496;28;20537;-69
2023/04/10 09:57:53;;;;;;;2.03;1.83;;;18.90;36.50;;;;;;5066229;28;20186;-68
2023/04/10 10:00:19;;;;;;;1.93;1.83;;;18.70;35.70;;;;;;5067376;28;20419;-70
2023/04/10 10:02:46;;;;;;;2.07;1.73;;;18.20;35.10;;;;;;5065970;28;20260;-70
2023/04/10 10:05:11;;;;;;;2.37;2.17;;;18.30;37.40;;;;;;5067075;28;20944;-70
2023/04/10 10:07:38;;;;;;;1.50;1.40;;;18.70;36.90;;;;;;5067256;28;20407;-70
2023/04/10 10:10:06;;;;;;;3.07;1.90;;;18.80;35.60;;;;;;5066194;28;20187;-69
2023/04/10 10:12:43;;;;;;;1.70;1.40;;;19.00;33.40;;;;;;5067478;28;20450;-69
2023/04/10 10:15:17;;;;;;;2.03;1.83;;;18.70;32.80;;;;;;5082800;28;20915;-69
2023/04/10 10:17:50;;;;;;;1.77;1.67;;;18.70;32.80;;;;;;5067745;28;20762;-69
2023/04/10 10:20:18;;;;;;;1.20;1.10;;;18.50;32.40;;;;;;5067829;28;20419;-69
2023/04/10 10:22:45;;;;;;;1.60;1.50;;;17.90;31.20;;;;;;5067893;28;20940;-69
2023/04/10 10:25:12;;;;;;;1.50;1.40;;;18.70;32.20;;;;;;5067893;28;20443;-69
2023/04/10 10:27:40;;;;;;;1.40;1.30;;;19.50;33.40;;;;;;5066415;28;20415;-69
2023/04/10 10:30:08;;;;;;;1.30;1.20;;;19.80;32.60;;;;;;5066261;28;20431;-69
2023/04/10 10:32:34;;;;;;;1.63;1.37;;;19.60;31.00;;;;;;5067742;28;20444;-69
2023/04/10 10:35:02;;;;;;;1.77;1.50;;;19.60;29.50;;;;;;5068006;28;21066;-70
2023/04/10 10:37:28;;;;;;;1.10;1.00;;;20.10;31.80;;;;;;5067772;28;20550;-71
2023/04/10 10:40:04;;;;;;;1.73;1.33;;;20.30;29.50;;;;;;5067478;28;20451;-69
2023/04/10 10:42:41;;;;;;;1.67;1.57;;;20.20;28.80;;;;;;5067349;28;20453;-70
2023/04/10 10:45:12;;;;;;;3.00;2.20;;;20.50;29.50;;;;;;5067522;28;20414;-72
2023/04/10 10:47:42;;;;;;;1.90;1.70;;;20.20;28.80;;;;;;5068048;28;20569;-73
2023/04/10 10:50:08;;;;;;;2.27;1.57;;;20.20;29.20;;;;;;5067188;28;20954;-73
2023/04/10 10:52:42;;;;;;;1.90;1.70;;;20.40;30.50;;;;;;5066424;28;20557;-72
2023/04/10 10:55:27;;;;;;;1.23;1.13;;;20.30;30.80;;;;;;5067865;28;20180;-73
2023/04/10 10:57:54;;;;;;;2.30;2.10;;;19.90;28.60;;;;;;5067557;28;20981;-73
2023/04/10 11:00:22;;;;;;;1.47;1.37;;;20.50;29.70;;;;;;5067434;28;20414;-73
2023/04/10 11:03:06;;;;;;;1.40;1.30;;;20.20;28.20;;;;;;5065647;28;20445;-73
2023/04/10 11:05:51;;;;;;;2.27;1.27;;;20.50;28.90;;;;;;5069904;28;20445;-74
2023/04/10 11:08:17;;;;;;;1.43;1.33;;;20.40;28.50;;;;;;5071038;28;20416;-72
2023/04/10 11:11:06;;;;;;;4.70;1.17;;;20.10;27.20;;;;;;5070499;28;20435;-72
2023/04/10 11:13:32;;;;;;;1.93;1.63;;;20.30;29.80;;;;;;5086093;28;20457;-72
2023/04/10 11:16:00;;;;;;;3.73;1.80;;;20.20;31.50;;;;;;5070769;28;20451;-72
2023/04/10 11:18:47;;;;;;;1.83;1.73;;;19.90;28.50;;;;;;5068964;28;20499;-73
2023/04/10 11:21:18;;;;;;;1.43;1.10;;;19.70;28.90;;;;;;5070571;28;20461;-72
2023/04/10 11:23:49;;;;;;;8.33;1.90;;;19.70;28.30;;;;;;5071206;28;20440;-73
2023/04/10 11:26:42;;;;;;;1.40;1.30;;;19.30;26.10;;;;;;5070888;28;20425;-73
2023/04/10 11:29:17;;;;;;;5.10;1.30;;;19.30;26.40;;;;;;5069784;28;20975;-74
2023/04/10 11:31:44;;;;;;;2.07;1.00;;;19.80;29.20;;;;;;5070550;28;20444;-75
2023/04/10 11:34:10;;;;;;;2.03;1.93;;;20.90;30.40;;;;;;5052004;28;20430;-75
2023/04/10 11:36:41;;;;;;;2.07;1.97;;;20.90;28.00;;;;;;5068111;28;20437;-73
2023/04/10 11:39:09;;;;;;;1.70;1.60;;;21.30;29.00;;;;;;5069410;28;20448;-75
2023/04/10 11:41:46;;;;;;;2.40;1.70;;;21.40;27.40;;;;;;5070036;28;20797;-75
2023/04/10 11:44:16;;;;;;;1.93;1.47;;;21.60;28.20;;;;;;5068030;28;20416;-76
2023/04/10 11:46:46;;;;;;;2.00;1.90;;;21.80;28.00;;;;;;5069924;28;20417;-75
2023/04/10 11:49:20;;;;;;;1.83;1.73;;;22.30;28.40;;;;;;5070117;28;20455;-75
2023/04/10 11:51:47;;;;;;;1.80;1.70;;;22.30;26.90;;;;;;5068075;28;20487;-75
2023/04/10 11:54:25;;;;;;;1.67;1.57;;;22.20;27.40;;;;;;5069705;28;20823;-75
2023/04/10 11:57:10;;;;;;;1.67;1.57;;;21.50;26.00;;;;;;5085013;28;20437;-75
2023/04/10 11:59:36;;;;;;;1.60;1.50;;;21.80;25.70;;;;;;5069220;28;21002;-75
2023/04/10 12:02:15;;;;;;;2.00;1.80;;;22.20;27.00;;;;;;5068884;28;20480;-74
2023/04/10 12:04:44;;;;;;;1.90;1.53;;;21.80;28.10;;;;;;5069189;28;20179;-74
2023/04/10 12:07:10;;;;;;;5.43;1.80;;;21.90;25.90;;;;;;5067481;28;20433;-74
2023/04/10 12:09:36;;;;;;;1.70;1.47;;;22.50;27.60;;;;;;5069273;28;20437;-74
2023/04/10 12:12:04;;;;;;;2.90;1.53;;;22.60;26.00;;;;;;5069090;28;20475;-74
2023/04/10 12:14:41;;;;;;;1.73;1.60;;;22.60;27.00;;;;;;5067607;28;20191;-74
2023/04/10 12:17:08;;;;;;;1.93;1.30;;;22.60;28.10;;;;;;5069041;28;20456;-74
2023/04/10 12:19:35;;;;;;;1.63;1.53;;;21.90;25.30;;;;;;5069089;28;20457;-76
2023/04/10 12:22:01;;;;;;;1.67;1.57;;;22.00;25.80;;;;;;5068819;28;20520;-76
2023/04/10 12:24:41;;;;;;;1.80;1.70;;;21.80;26.40;;;;;;5084075;28;20425;-75
2023/04/10 12:27:17;;;;;;;1.50;1.40;;;22.00;27.10;;;;;;5067065;28;20443;-75
2023/04/10 12:29:47;;;;;;;1.53;1.40;;;21.80;26.10;;;;;;5067091;28;20458;-75
2023/04/10 12:32:13;;;;;;;1.60;1.50;;;21.30;25.50;;;;;;5068469;28;20488;-75
2023/04/10 12:34:39;;;;;;;1.40;1.30;;;20.80;25.70;;;;;;5068447;28;20881;-75
2023/04/10 12:37:05;;;;;;;1.30;1.20;;;21.10;25.80;;;;;;5066960;28;20183;-76
2023/04/10 12:39:31;;;;;;;2.40;1.53;;;20.90;25.20;;;;;;5083612;28;20453;-75
2023/04/10 12:42:19;;;;;;;1.40;1.30;;;21.20;25.60;;;;;;5068197;28;20479;-74
2023/04/10 12:44:53;;;;;;;1.00;0.90;;;20.50;24.40;;;;;;5068142;28;20669;-75
2023/04/10 12:47:19;;;;;;;1.20;1.10;;;20.70;26.20;;;;;;5069059;28;20910;-75
2023/04/10 12:50:08;;;;;;;1.73;1.63;;;20.70;25.80;;;;;;5083915;28;20429;-75
2023/04/10 12:52:35;;;;;;;1.47;1.37;;;20.80;26.10;;;;;;5068767;28;20207;-75
2023/04/10 12:55:11;;;;;;;3.83;1.90;;;20.80;26.10;;;;;;5068961;28;20429;-75